Time;durP1;ratioP1;P1;durP2;ratioP2;P2;SDS_P1;SDS_P2;PMS_P1;PMS_P2;Temp;Humidity;BMP_temperature;BMP_pressure;BME280_temperature;BME280_humidity;BME280_pressure;Samples;Min_cycle;Max_cycle;Signal;HPM_P1;HPM_P2
2022/07/28 00:02:05;;;;;;;;;;;;;;;;;;5001795;28;20037;-25
2022/07/28 00:04:33;;;;;;;;;;;;;;;;;;5002153;28;20004;-25
2022/07/28 00:07:00;;;;;;;;;;;;;;;;;;5018856;28;19924;-25
2022/07/28 00:09:26;;;;;;;;;;;;;;;;;;5018790;28;19913;-25
2022/07/28 00:11:53;;;;;;;;;;;;;;;;;;5018945;28;19910;-25
2022/07/28 00:14:20;;;;;;;;;;;;;;;;;;5019469;28;19918;-25
2022/07/28 00:16:48;;;;;;;;;;;;;;;;;;5018654;28;19917;-25
2022/07/28 00:19:16;;;;;;;;;;;;;;;;;;5019539;28;19909;-25
2022/07/28 00:21:46;;;;;;;;;;;;;;;;;;5019450;28;20013;-25
2022/07/28 00:24:13;;;;;;;;;;;;;;;;;;5018827;28;20295;-25
2022/07/28 00:26:39;;;;;;;;;;;;;;;;;;5019132;28;19913;-25
2022/07/28 00:29:07;;;;;;;;;;;;;;;;;;5000987;28;19910;-25
2022/07/28 00:31:34;;;;;;;;;;;;;;;;;;5018954;28;19913;-25
2022/07/28 00:34:01;;;;;;;;;;;;;;;;;;5018711;28;20372;-25
2022/07/28 00:36:30;;;;;;;;;;;;;;;;;;5019243;28;20395;-25
2022/07/28 00:38:58;;;;;;;;;;;;;;;;;;5019104;28;19921;-25
2022/07/28 00:41:24;;;;;;;;;;;;;;;;;;5001657;28;19920;-25
2022/07/28 00:43:52;;;;;;;;;;;;;;;;;;5018909;28;19936;-25
2022/07/28 00:46:19;;;;;;;;;;;;;;;;;;5018259;28;19956;-25
2022/07/28 00:48:47;;;;;;;;;;;;;;;;;;5018480;28;19921;-25
2022/07/28 00:51:15;;;;;;;;;;;;;;;;;;5019168;28;19914;-25
2022/07/28 00:53:42;;;;;;;;;;;;;;;;;;5018819;28;19988;-25
2022/07/28 00:56:09;;;;;;;;;;;;;;;;;;5018751;28;20348;-25
2022/07/28 00:58:38;;;;;;;;;;;;;;;;;;5018449;28;19914;-25
2022/07/28 01:01:06;;;;;;;;;;;;;;;;;;5018402;28;19913;-25
2022/07/28 01:03:33;;;;;;;;;;;;;;;;;;5018432;28;19925;-25
2022/07/28 01:06:00;;;;;;;;;;;;;;;;;;5000644;28;19909;-25
2022/07/28 01:08:28;;;;;;;;;;;;;;;;;;5018367;28;19921;-25
2022/07/28 01:10:55;;;;;;;;;;;;;;;;;;5018363;28;19913;-26
2022/07/28 01:13:23;;;;;;;;;;;;;;;;;;5018285;28;20004;-25
2022/07/28 01:15:50;;;;;;;;;;;;;;;;;;5018512;28;20267;-25
2022/07/28 01:18:17;;;;;;;;;;;;;;;;;;5000941;28;19944;-25
2022/07/28 01:20:44;;;;;;;;;;;;;;;;;;5018011;28;19913;-25
2022/07/28 01:23:18;;;;;;;;;;;;;;;;;;5018270;28;19909;-25
2022/07/28 01:25:45;;;;;;;;;;;;;;;;;;5018479;28;19914;-25
2022/07/28 01:28:12;;;;;;;;;;;;;;;;;;5018819;28;19909;-25
2022/07/28 01:30:39;;;;;;;;;;;;;;;;;;5017610;28;19922;-25
2022/07/28 01:33:08;;;;;;;;;;;;;;;;;;4999819;28;19928;-25
2022/07/28 01:35:36;;;;;;;;;;;;;;;;;;5000397;28;19913;-25
2022/07/28 01:38:03;;;;;;;;;;;;;;;;;;5018097;28;19913;-25
2022/07/28 01:40:30;;;;;;;;;;;;;;;;;;5000964;28;20320;-25
2022/07/28 01:42:57;;;;;;;;;;;;;;;;;;5017839;28;19917;-25
2022/07/28 01:45:25;;;;;;;;;;;;;;;;;;5017693;28;19917;-25
2022/07/28 01:47:51;;;;;;;;;;;;;;;;;;4999981;28;19913;-25
2022/07/28 01:50:18;;;;;;;;;;;;;;;;;;5018666;28;19913;-24
2022/07/28 01:52:48;;;;;;;;;;;;;;;;;;5000122;28;19945;-25
2022/07/28 01:55:16;;;;;;;;;;;;;;;;;;5017875;28;19913;-24
2022/07/28 01:57:43;;;;;;;;;;;;;;;;;;5017424;28;19928;-24
2022/07/28 02:00:12;;;;;;;;;;;;;;;;;;5017480;28;19964;-25
2022/07/28 02:02:39;;;;;;;;;;;;;;;;;;5016999;28;19923;-24
2022/07/28 02:05:06;;;;;;;;;;;;;;;;;;5017625;28;19996;-25
2022/07/28 02:07:34;;;;;;;;;;;;;;;;;;5017823;28;20358;-25
2022/07/28 02:10:01;;;;;;;;;;;;;;;;;;5018115;28;19913;-25
2022/07/28 02:12:28;;;;;;;;;;;;;;;;;;5018943;28;19956;-25
2022/07/28 02:14:55;;;;;;;;;;;;;;;;;;5005272;28;19914;-25
2022/07/28 02:17:23;;;;;;;;;;;;;;;;;;5003747;28;19924;-25
2022/07/28 02:28:21;;;;;;;;;;;;;;;;;;5021368;28;19928;-26
2022/07/28 02:30:48;;;;;;;;;;;;;;;;;;5022086;28;19918;-25
2022/07/28 02:36:01;;;;;;;;;;;;;;;;;;5021031;28;19936;-25
2022/07/28 02:41:21;;;;;;;;;;;;;;;;;;5021778;28;20272;-25
2022/07/28 02:43:48;;;;;;;;;;;;;;;;;;5021235;28;19918;-25
2022/07/28 02:57:27;;;;;;;;;;;;;;;;;;5445431;22;19941;-23
2022/07/28 02:59:55;;;;;;;;;;;;;;;;;;5000346;28;19929;-22
2022/07/28 03:02:22;;;;;;;;;;;;;;;;;;4999759;28;19937;-22
2022/07/28 03:05:00;;;;;;;;;;;;;;;;;;5000854;28;20233;-22
2022/07/28 03:07:27;;;;;;;;;;;;;;;;;;5007011;28;19973;-22
2022/07/28 03:09:55;;;;;;;;;;;;;;;;;;5020037;28;20236;-22
2022/07/28 03:15:10;;;;;;;;;;;;;;;;;;5020609;28;19947;-22
2022/07/28 03:17:38;;;;;;;;;;;;;;;;;;5020062;28;19932;-22
2022/07/28 03:20:06;;;;;;;;;;;;;;;;;;5020683;28;20231;-23
2022/07/28 03:22:33;;;;;;;;;;;;;;;;;;5020143;28;19964;-23
2022/07/28 03:25:00;;;;;;;;;;;;;;;;;;5019355;28;19959;-22
2022/07/28 03:27:27;;;;;;;;;;;;;;;;;;5019718;28;20014;-22
2022/07/28 03:29:54;;;;;;;;;;;;;;;;;;5002720;28;19937;-22
2022/07/28 03:32:22;;;;;;;;;;;;;;;;;;5002487;28;20443;-23
2022/07/28 03:34:51;;;;;;;;;;;;;;;;;;5002529;28;19914;-22
2022/07/28 03:37:18;;;;;;;;;;;;;;;;;;5019596;28;19913;-22
2022/07/28 03:39:45;;;;;;;;;;;;;;;;;;5001952;28;19913;-25
2022/07/28 03:42:14;;;;;;;;;;;;;;;;;;5019668;28;19920;-25
2022/07/28 03:44:40;;;;;;;;;;;;;;;;;;5019342;28;19964;-24
2022/07/28 03:47:07;;;;;;;;;;;;;;;;;;5002152;28;19941;-24
2022/07/28 03:49:35;;;;;;;;;;;;;;;;;;5019063;28;20260;-25
2022/07/28 03:52:02;;;;;;;;;;;;;;;;;;5002158;28;19976;-24
2022/07/28 03:54:29;;;;;;;;;;;;;;;;;;5019763;28;19913;-24
2022/07/28 03:56:57;;;;;;;;;;;;;;;;;;5019295;28;19993;-25
2022/07/28 03:59:24;;;;;;;;;;;;;;;;;;5003177;28;19918;-25
2022/07/28 04:07:12;;;;;;;;;;;;;;;;;;5019655;28;19966;-19
2022/07/28 04:09:40;;;;;;;;;;;;;;;;;;5001533;28;20008;-20
2022/07/28 04:12:07;;;;;;;;;;;;;;;;;;5015289;28;20249;-19
2022/07/28 04:14:40;;;;;;;;;;;;;;;;;;4983345;28;20060;-19
2022/07/28 04:17:24;;;;;;;;;;;;;;;;;;4998456;28;20375;-20
2022/07/28 04:19:51;;;;;;;;;;;;;;;;;;4981093;28;19924;-19
2022/07/28 04:22:19;;;;;;;;;;;;;;;;;;4998699;28;19914;-19
2022/07/28 04:24:46;;;;;;;;;;;;;;;;;;4981801;28;19949;-19
2022/07/28 04:32:50;;;;;;;;;;;;;;;;;;4999155;28;20256;-19
2022/07/28 04:35:17;;;;;;;;;;;;;;;;;;4999018;28;19941;-19
2022/07/28 04:37:47;;;;;;;;;;;;;;;;;;4981343;28;20294;-19
2022/07/28 04:40:15;;;;;;;;;;;;;;;;;;4999441;28;19918;-19
2022/07/28 04:42:43;;;;;;;;;;;;;;;;;;4999041;28;19920;-19
2022/07/28 04:45:10;;;;;;;;;;;;;;;;;;4998898;28;19914;-20
2022/07/28 04:47:38;;;;;;;;;;;;;;;;;;4998979;28;19921;-19
2022/07/28 04:50:06;;;;;;;;;;;;;;;;;;4999264;28;19921;-20
2022/07/28 04:52:33;;;;;;;;;;;;;;;;;;4981375;28;19944;-20
2022/07/28 05:00:38;;;;;;;;;;;;;;;;;;5000026;28;20418;-19
2022/07/28 05:03:06;;;;;;;;;;;;;;;;;;4997703;28;19922;-20
2022/07/28 05:05:32;;;;;;;;;;;;;;;;;;4980568;28;19918;-20
2022/07/28 05:08:00;;;;;;;;;;;;;;;;;;4999029;28;19921;-20
2022/07/28 05:10:27;;;;;;;;;;;;;;;;;;4997337;28;20305;-21
2022/07/28 05:18:25;;;;;;;;;;;;;;;;;;4997323;28;19936;-20
2022/07/28 05:20:53;;;;;;;;;;;;;;;;;;4997305;28;19921;-20
2022/07/28 05:23:20;;;;;;;;;;;;;;;;;;4997644;28;19997;-20
2022/07/28 05:25:47;;;;;;;;;;;;;;;;;;4997733;28;20328;-20
2022/07/28 05:28:15;;;;;;;;;;;;;;;;;;4997393;28;20386;-20
2022/07/28 05:30:42;;;;;;;;;;;;;;;;;;4997429;28;19914;-20
2022/07/28 05:33:09;;;;;;;;;;;;;;;;;;4980285;28;19936;-20
2022/07/28 05:35:39;;;;;;;;;;;;;;;;;;4997536;28;19913;-20
2022/07/28 05:38:08;;;;;;;;;;;;;;;;;;4980173;28;20013;-20
2022/07/28 05:40:35;;;;;;;;;;;;;;;;;;4980020;28;19964;-19
2022/07/28 05:43:02;;;;;;;;;;;;;;;;;;4979639;28;19913;-20
2022/07/28 05:45:29;;;;;;;;;;;;;;;;;;4997789;28;19910;-20
2022/07/28 05:47:56;;;;;;;;;;;;;;;;;;4999177;28;20000;-20
2022/07/28 05:53:15;;;;;;;;;;;;;;;;;;5002133;28;19928;-21
2022/07/28 05:58:32;;;;;;;;;;;;;;;;;;5001665;28;19924;-21
2022/07/28 06:01:03;;;;;;;;;;;;;;;;;;4984694;28;19922;-22
2022/07/28 06:03:34;;;;;;;;;;;;;;;;;;5001169;28;19928;-21
2022/07/28 06:06:04;;;;;;;;;;;;;;;;;;4983803;28;19914;-21
2022/07/28 06:08:32;;;;;;;;;;;;;;;;;;5001476;28;19940;-20
2022/07/28 06:13:47;;;;;;;;;;;;;;;;;;5002765;28;20025;-20
2022/07/28 06:16:17;;;;;;;;;;;;;;;;;;5002285;28;19932;-21
2022/07/28 06:24:21;;;;;;;;;;;;;;;;;;5001665;28;19929;-21
2022/07/28 06:26:51;;;;;;;;;;;;;;;;;;5000996;28;19977;-21
2022/07/28 06:29:27;;;;;;;;;;;;;;;;;;4984859;28;19913;-20
2022/07/28 06:31:59;;;;;;;;;;;;;;;;;;4999696;28;19980;-20
2022/07/28 06:34:29;;;;;;;;;;;;;;;;;;4983412;28;19910;-21
2022/07/28 06:36:57;;;;;;;;;;;;;;;;;;4984466;28;19944;-20
2022/07/28 06:39:26;;;;;;;;;;;;;;;;;;4983332;28;20004;-20
2022/07/28 06:41:53;;;;;;;;;;;;;;;;;;4983880;28;19964;-21
2022/07/28 06:44:26;;;;;;;;;;;;;;;;;;5000640;28;19914;-21
2022/07/28 06:46:57;;;;;;;;;;;;;;;;;;5000596;28;20418;-21
2022/07/28 06:49:28;;;;;;;;;;;;;;;;;;4999919;28;19914;-19
2022/07/28 06:52:00;;;;;;;;;;;;;;;;;;4999944;28;19952;-21
2022/07/28 06:54:28;;;;;;;;;;;;;;;;;;4999287;28;19913;-31
2022/07/28 06:57:08;;;;;;;;;;;;;;;;;;5000933;28;20273;-21
2022/07/28 06:59:36;;;;;;;;;;;;;;;;;;4982420;28;19918;-19
2022/07/28 07:07:45;;;;;;;;;;;;;;;;;;4846841;28;20356;-19
2022/07/28 07:10:11;;;;;;;;;;;;;;;;;;4997470;28;19913;-20
2022/07/28 07:12:37;;;;;;;;;;;;;;;;;;4997605;28;19987;-21
2022/07/28 07:15:03;;;;;;;;;;;;;;;;;;4997626;28;20000;-20
2022/07/28 07:17:29;;;;;;;;;;;;;;;;;;4997812;28;20284;-19
2022/07/28 07:19:55;;;;;;;;;;;;;;;;;;4997351;28;19909;-20
2022/07/28 07:22:21;;;;;;;;;;;;;;;;;;4979827;28;20256;-20
2022/07/28 07:24:47;;;;;;;;;;;;;;;;;;4997244;28;19910;-20
2022/07/28 07:27:13;;;;;;;;;;;;;;;;;;4997682;28;19913;-19
2022/07/28 07:29:39;;;;;;;;;;;;;;;;;;4997099;28;19910;-20
2022/07/28 07:32:05;;;;;;;;;;;;;;;;;;4996833;28;20000;-19
2022/07/28 07:34:31;;;;;;;;;;;;;;;;;;4996879;28;19921;-20
2022/07/28 07:36:57;;;;;;;;;;;;;;;;;;4996980;28;19917;-21
2022/07/28 07:39:23;;;;;;;;;;;;;;;;;;4979788;28;19913;-20
2022/07/28 07:41:49;;;;;;;;;;;;;;;;;;4997204;28;19920;-21
2022/07/28 07:44:15;;;;;;;;;;;;;;;;;;4996972;28;19914;-21
2022/07/28 07:46:42;;;;;;;;;;;;;;;;;;4996790;28;19973;-21
2022/07/28 07:49:07;;;;;;;;;;;;;;;;;;4996722;28;19992;-20
2022/07/28 07:51:33;;;;;;;;;;;;;;;;;;4996676;28;19957;-21
2022/07/28 07:53:59;;;;;;;;;;;;;;;;;;4996432;28;20336;-20
2022/07/28 07:56:25;;;;;;;;;;;;;;;;;;4996621;28;19960;-20
2022/07/28 07:58:52;;;;;;;;;;;;;;;;;;4979409;28;19977;-18
2022/07/28 08:01:18;;;;;;;;;;;;;;;;;;4996516;28;19916;-20
2022/07/28 08:03:45;;;;;;;;;;;;;;;;;;4979507;28;20370;-21
2022/07/28 08:06:11;;;;;;;;;;;;;;;;;;4996452;28;19925;-19
2022/07/28 08:08:37;;;;;;;;;;;;;;;;;;4996581;28;19914;-20
2022/07/28 08:11:05;;;;;;;;;;;;;;;;;;4994730;28;21544;-18
2022/07/28 08:13:31;;;;;;;;;;;;;;;;;;4996243;28;19924;-20
2022/07/28 08:15:58;;;;;;;;;;;;;;;;;;4996315;28;19917;-20
2022/07/28 08:18:24;;;;;;;;;;;;;;;;;;4996196;28;19963;-20
2022/07/28 08:20:50;;;;;;;;;;;;;;;;;;4995968;28;19925;-20
2022/07/28 08:23:16;;;;;;;;;;;;;;;;;;4978694;28;19910;-20
2022/07/28 08:25:43;;;;;;;;;;;;;;;;;;4996120;28;20345;-19
2022/07/28 08:28:09;;;;;;;;;;;;;;;;;;4978506;28;19928;-20
2022/07/28 08:30:35;;;;;;;;;;;;;;;;;;4978787;28;19952;-20
2022/07/28 08:33:01;;;;;;;;;;;;;;;;;;4996144;28;20329;-20
2022/07/28 08:35:27;;;;;;;;;;;;;;;;;;4996165;28;20260;-19
2022/07/28 08:37:54;;;;;;;;;;;;;;;;;;4995705;28;20364;-21
2022/07/28 08:40:20;;;;;;;;;;;;;;;;;;4996004;28;19929;-24
2022/07/28 08:42:46;;;;;;;;;;;;;;;;;;4978531;28;20034;-19
2022/07/28 08:45:13;;;;;;;;;;;;;;;;;;4978322;28;19914;-20
2022/07/28 08:47:39;;;;;;;;;;;;;;;;;;4978228;28;20226;-20
2022/07/28 08:50:05;;;;;;;;;;;;;;;;;;4995378;28;20384;-21
2022/07/28 08:52:31;;;;;;;;;;;;;;;;;;4995403;28;19948;-20
2022/07/28 08:54:57;;;;;;;;;;;;;;;;;;4995696;28;19922;-21
2022/07/28 08:57:23;;;;;;;;;;;;;;;;;;4995193;28;19975;-20
2022/07/28 08:59:50;;;;;;;;;;;;;;;;;;4977989;28;19934;-20
2022/07/28 09:02:16;;;;;;;;;;;;;;;;;;4995013;28;19914;-20
2022/07/28 09:04:43;;;;;;;;;;;;;;;;;;4995063;28;20238;-20
2022/07/28 09:07:09;;;;;;;;;;;;;;;;;;4995019;28;19921;-20
2022/07/28 09:09:36;;;;;;;;;;;;;;;;;;4995230;28;20012;-21
2022/07/28 09:12:04;;;;;;;;;;;;;;;;;;4977646;28;19914;-20
2022/07/28 09:14:30;;;;;;;;;;;;;;;;;;4994825;28;20000;-21
2022/07/28 09:16:56;;;;;;;;;;;;;;;;;;4995042;28;20032;-20
2022/07/28 09:19:22;;;;;;;;;;;;;;;;;;4977768;28;20349;-21
2022/07/28 09:21:48;;;;;;;;;;;;;;;;;;4995114;28;20332;-20
2022/07/28 09:24:14;;;;;;;;;;;;;;;;;;4995096;28;19978;-20
2022/07/28 09:26:40;;;;;;;;;;;;;;;;;;4995286;28;19914;-21
2022/07/28 09:29:07;;;;;;;;;;;;;;;;;;4995047;28;20210;-21
2022/07/28 09:31:33;;;;;;;;;;;;;;;;;;4994749;28;19914;-21
2022/07/28 09:33:59;;;;;;;;;;;;;;;;;;4994651;28;19917;-20
2022/07/28 09:36:25;;;;;;;;;;;;;;;;;;4994854;28;19914;-20
2022/07/28 09:38:51;;;;;;;;;;;;;;;;;;4995405;28;19913;-20
2022/07/28 09:41:20;;;;;;;;;;;;;;;;;;4995107;28;19910;-20
2022/07/28 09:43:46;;;;;;;;;;;;;;;;;;4977581;28;19952;-20
2022/07/28 09:46:12;;;;;;;;;;;;;;;;;;4995182;28;19921;-18
2022/07/28 09:48:38;;;;;;;;;;;;;;;;;;4995095;28;20244;-19
2022/07/28 09:51:04;;;;;;;;;;;;;;;;;;4994931;28;19929;-21
2022/07/28 09:53:30;;;;;;;;;;;;;;;;;;4977589;28;19909;-20
2022/07/28 09:55:56;;;;;;;;;;;;;;;;;;4994712;28;20260;-21
2022/07/28 09:58:22;;;;;;;;;;;;;;;;;;4994854;28;19910;-21
2022/07/28 10:00:48;;;;;;;;;;;;;;;;;;4994744;28;19913;-19
2022/07/28 10:03:14;;;;;;;;;;;;;;;;;;4994944;28;20328;-20
2022/07/28 10:05:40;;;;;;;;;;;;;;;;;;4994491;28;19925;-20
2022/07/28 10:08:06;;;;;;;;;;;;;;;;;;4995012;28;19910;-20
2022/07/28 10:10:32;;;;;;;;;;;;;;;;;;4994758;28;19913;-20
2022/07/28 10:12:58;;;;;;;;;;;;;;;;;;4994739;28;19976;-21
2022/07/28 10:18:08;;;;;;;;;;;;;;;;;;4994661;28;20015;-20
2022/07/28 10:20:34;;;;;;;;;;;;;;;;;;4977324;28;19931;-21
2022/07/28 10:23:00;;;;;;;;;;;;;;;;;;4994661;28;20370;-20
2022/07/28 10:25:26;;;;;;;;;;;;;;;;;;4994548;28;19937;-20
2022/07/28 10:27:53;;;;;;;;;;;;;;;;;;4994772;28;20230;-20
2022/07/28 10:30:19;;;;;;;;;;;;;;;;;;4994609;28;19918;-20
2022/07/28 10:32:45;;;;;;;;;;;;;;;;;;4994335;28;19910;-20
2022/07/28 10:35:11;;;;;;;;;;;;;;;;;;4997838;28;19913;-20
2022/07/28 10:37:37;;;;;;;;;;;;;;;;;;4998512;28;19964;-20
2022/07/28 10:40:03;;;;;;;;;;;;;;;;;;4980761;28;20359;-21
2022/07/28 10:42:29;;;;;;;;;;;;;;;;;;4998277;28;19913;-19
2022/07/28 10:44:55;;;;;;;;;;;;;;;;;;4981425;28;19995;-20
2022/07/28 10:47:22;;;;;;;;;;;;;;;;;;4998055;28;20245;-20
2022/07/28 10:49:48;;;;;;;;;;;;;;;;;;4997915;28;20004;-21
2022/07/28 10:52:16;;;;;;;;;;;;;;;;;;4997804;28;20237;-20
2022/07/28 10:54:42;;;;;;;;;;;;;;;;;;4998356;28;19914;-20
2022/07/28 10:57:08;;;;;;;;;;;;;;;;;;4980461;28;19921;-20
2022/07/28 10:59:35;;;;;;;;;;;;;;;;;;4997899;28;19913;-20
2022/07/28 11:02:01;;;;;;;;;;;;;;;;;;4997285;28;20008;-21
2022/07/28 11:04:27;;;;;;;;;;;;;;;;;;4997236;28;19949;-19
2022/07/28 11:06:54;;;;;;;;;;;;;;;;;;4997202;28;19922;-20
2022/07/28 11:09:20;;;;;;;;;;;;;;;;;;4980044;28;19937;-20
2022/07/28 11:11:48;;;;;;;;;;;;;;;;;;4997397;28;19921;-19
2022/07/28 11:14:14;;;;;;;;;;;;;;;;;;4997363;28;20000;-20
2022/07/28 11:16:40;;;;;;;;;;;;;;;;;;4996895;28;20304;-20
2022/07/28 11:19:07;;;;;;;;;;;;;;;;;;4997032;28;19920;-20
2022/07/28 11:21:33;;;;;;;;;;;;;;;;;;4997869;28;19909;-20
2022/07/28 11:23:59;;;;;;;;;;;;;;;;;;4997987;28;19933;-20
2022/07/28 11:26:26;;;;;;;;;;;;;;;;;;4997364;28;20348;-20
2022/07/28 11:28:52;;;;;;;;;;;;;;;;;;4997724;28;19914;-20
2022/07/28 11:31:18;;;;;;;;;;;;;;;;;;4980204;28;20004;-21
2022/07/28 11:33:44;;;;;;;;;;;;;;;;;;4997322;28;19970;-20
2022/07/28 11:36:10;;;;;;;;;;;;;;;;;;4997608;28;19925;-20
2022/07/28 11:38:36;;;;;;;;;;;;;;;;;;4997567;28;20001;-20
2022/07/28 11:41:02;;;;;;;;;;;;;;;;;;4996999;28;19913;-20
2022/07/28 11:43:29;;;;;;;;;;;;;;;;;;4979644;28;19910;-21
2022/07/28 11:45:55;;;;;;;;;;;;;;;;;;4995732;28;19942;-21
2022/07/28 11:48:21;;;;;;;;;;;;;;;;;;4997243;28;19914;-19
2022/07/28 11:50:47;;;;;;;;;;;;;;;;;;4996754;28;20058;-20
2022/07/28 11:53:13;;;;;;;;;;;;;;;;;;4996752;28;20364;-20
2022/07/28 11:55:40;;;;;;;;;;;;;;;;;;4997165;28;20035;-20
2022/07/28 11:58:06;;;;;;;;;;;;;;;;;;4996662;28;19967;-20
2022/07/28 12:00:32;;;;;;;;;;;;;;;;;;4996646;28;20400;-19
2022/07/28 12:02:59;;;;;;;;;;;;;;;;;;4996567;28;19976;-20
2022/07/28 12:05:25;;;;;;;;;;;;;;;;;;4996516;28;20349;-21
2022/07/28 12:07:52;;;;;;;;;;;;;;;;;;4996371;28;19922;-19
2022/07/28 12:10:18;;;;;;;;;;;;;;;;;;4979163;28;20297;-20
2022/07/28 12:12:44;;;;;;;;;;;;;;;;;;4996400;28;20246;-20
2022/07/28 12:15:10;;;;;;;;;;;;;;;;;;4996324;28;19914;-20
2022/07/28 12:17:37;;;;;;;;;;;;;;;;;;4996117;28;20305;-21
2022/07/28 12:20:04;;;;;;;;;;;;;;;;;;4979011;28;19917;-19
2022/07/28 12:22:30;;;;;;;;;;;;;;;;;;4978858;28;19914;-20
2022/07/28 12:24:56;;;;;;;;;;;;;;;;;;4995991;28;20371;-20
2022/07/28 12:27:23;;;;;;;;;;;;;;;;;;4996446;28;19909;-20
2022/07/28 12:29:49;;;;;;;;;;;;;;;;;;4995983;28;19914;-20
2022/07/28 12:32:16;;;;;;;;;;;;;;;;;;4996042;28;20369;-21
2022/07/28 12:34:43;;;;;;;;;;;;;;;;;;4996396;28;19945;-20
2022/07/28 12:37:09;;;;;;;;;;;;;;;;;;4996103;28;20004;-20
2022/07/28 12:39:38;;;;;;;;;;;;;;;;;;4996445;28;19968;-19
2022/07/28 12:42:04;;;;;;;;;;;;;;;;;;4996028;28;19920;-19
2022/07/28 12:44:30;;;;;;;;;;;;;;;;;;4978743;28;19914;-20
2022/07/28 12:46:57;;;;;;;;;;;;;;;;;;4995872;28;20368;-20
2022/07/28 12:49:23;;;;;;;;;;;;;;;;;;4996211;28;19971;-20
2022/07/28 12:51:49;;;;;;;;;;;;;;;;;;4996025;28;20000;-18
2022/07/28 12:54:15;;;;;;;;;;;;;;;;;;4978519;28;19914;-31
2022/07/28 12:56:41;;;;;;;;;;;;;;;;;;4995151;28;19917;-20
2022/07/28 12:59:07;;;;;;;;;;;;;;;;;;4978258;28;19914;-20
2022/07/28 13:01:33;;;;;;;;;;;;;;;;;;4978179;28;19910;-19
2022/07/28 13:03:59;;;;;;;;;;;;;;;;;;4995296;28;19988;-20
2022/07/28 13:06:25;;;;;;;;;;;;;;;;;;4995548;28;20005;-20
2022/07/28 13:08:51;;;;;;;;;;;;;;;;;;4996106;28;19913;-21
2022/07/28 13:11:17;;;;;;;;;;;;;;;;;;4978285;28;19920;-19
2022/07/28 13:13:43;;;;;;;;;;;;;;;;;;4995429;28;19945;-20
2022/07/28 13:16:09;;;;;;;;;;;;;;;;;;4995579;28;19964;-20
2022/07/28 13:18:35;;;;;;;;;;;;;;;;;;4995321;28;19914;-20
2022/07/28 13:21:01;;;;;;;;;;;;;;;;;;4995334;28;19910;-19
2022/07/28 13:23:27;;;;;;;;;;;;;;;;;;4995276;28;19976;-21
2022/07/28 13:25:53;;;;;;;;;;;;;;;;;;4995675;28;19914;-19
2022/07/28 13:28:19;;;;;;;;;;;;;;;;;;4995218;28;19972;-20
2022/07/28 13:30:46;;;;;;;;;;;;;;;;;;4995746;28;19913;-21
2022/07/28 13:33:12;;;;;;;;;;;;;;;;;;4978154;28;20349;-20
2022/07/28 13:35:38;;;;;;;;;;;;;;;;;;4995396;28;19987;-20
2022/07/28 13:38:04;;;;;;;;;;;;;;;;;;4977996;28;19929;-20
2022/07/28 13:40:30;;;;;;;;;;;;;;;;;;4995062;28;19910;-20
2022/07/28 13:42:56;;;;;;;;;;;;;;;;;;4995557;28;19913;-20
2022/07/28 13:45:22;;;;;;;;;;;;;;;;;;4977934;28;19920;-20
2022/07/28 13:47:48;;;;;;;;;;;;;;;;;;4994997;28;19976;-20
2022/07/28 13:50:14;;;;;;;;;;;;;;;;;;4995150;28;20217;-20
2022/07/28 13:52:41;;;;;;;;;;;;;;;;;;4994944;28;20001;-19
2022/07/28 13:55:07;;;;;;;;;;;;;;;;;;4977906;28;19920;-19
2022/07/28 13:57:33;;;;;;;;;;;;;;;;;;4994932;28;20368;-20
2022/07/28 14:00:02;;;;;;;;;;;;;;;;;;4994983;28;19910;-19
2022/07/28 14:02:28;;;;;;;;;;;;;;;;;;4994869;28;19937;-19
2022/07/28 14:04:54;;;;;;;;;;;;;;;;;;4995248;28;19918;-20
2022/07/28 14:07:20;;;;;;;;;;;;;;;;;;4977348;28;20017;-20
2022/07/28 14:09:46;;;;;;;;;;;;;;;;;;4997644;28;20320;-20
2022/07/28 14:12:12;;;;;;;;;;;;;;;;;;4999002;28;20248;-20
2022/07/28 14:14:38;;;;;;;;;;;;;;;;;;4998460;28;19977;-20
2022/07/28 14:17:05;;;;;;;;;;;;;;;;;;4999131;28;20012;-21
2022/07/28 14:19:31;;;;;;;;;;;;;;;;;;4998506;28;19914;-19
2022/07/28 14:21:57;;;;;;;;;;;;;;;;;;4998489;28;20308;-19
2022/07/28 14:24:23;;;;;;;;;;;;;;;;;;4998479;28;19913;-19
2022/07/28 14:26:49;;;;;;;;;;;;;;;;;;4998546;28;20353;-20
2022/07/28 14:29:15;;;;;;;;;;;;;;;;;;4998904;28;19925;-20
2022/07/28 14:31:41;;;;;;;;;;;;;;;;;;4998463;28;20374;-20
2022/07/28 14:34:08;;;;;;;;;;;;;;;;;;4998337;28;19914;-20
2022/07/28 14:36:34;;;;;;;;;;;;;;;;;;4998526;28;19922;-21
2022/07/28 14:39:00;;;;;;;;;;;;;;;;;;4998609;28;19921;-20
2022/07/28 14:41:26;;;;;;;;;;;;;;;;;;4998444;28;19914;-19
2022/07/28 14:43:55;;;;;;;;;;;;;;;;;;4998355;28;20284;-19
2022/07/28 14:46:21;;;;;;;;;;;;;;;;;;4998176;28;19914;-19
2022/07/28 14:48:47;;;;;;;;;;;;;;;;;;4998507;28;19913;-20
2022/07/28 14:51:13;;;;;;;;;;;;;;;;;;4998067;28;19909;-20
2022/07/28 14:53:39;;;;;;;;;;;;;;;;;;4997785;28;19917;-20
2022/07/28 14:56:05;;;;;;;;;;;;;;;;;;4997822;28;19916;-20
2022/07/28 14:58:31;;;;;;;;;;;;;;;;;;4980684;28;19914;-20
2022/07/28 15:00:57;;;;;;;;;;;;;;;;;;4980551;28;19972;-20
2022/07/28 15:03:27;;;;;;;;;;;;;;;;;;4997570;28;19997;-20
2022/07/28 15:05:53;;;;;;;;;;;;;;;;;;4998126;28;20029;-19
2022/07/28 15:08:19;;;;;;;;;;;;;;;;;;4997611;28;19929;-21
2022/07/28 15:10:46;;;;;;;;;;;;;;;;;;4997671;28;19968;-20
2022/07/28 15:13:11;;;;;;;;;;;;;;;;;;4997701;28;20007;-21
2022/07/28 15:15:38;;;;;;;;;;;;;;;;;;4997336;28;19910;-20
2022/07/28 15:18:04;;;;;;;;;;;;;;;;;;4997163;28;19983;-20
2022/07/28 15:20:30;;;;;;;;;;;;;;;;;;4996992;28;19910;-20
2022/07/28 15:22:56;;;;;;;;;;;;;;;;;;4997470;28;19917;-21
2022/07/28 15:25:22;;;;;;;;;;;;;;;;;;4997078;28;20261;-21
2022/07/28 15:27:48;;;;;;;;;;;;;;;;;;4997315;28;20196;-20
2022/07/28 15:30:14;;;;;;;;;;;;;;;;;;4997498;28;19997;-21
2022/07/28 15:32:41;;;;;;;;;;;;;;;;;;4997085;28;19925;-21
2022/07/28 15:35:07;;;;;;;;;;;;;;;;;;4996934;28;19914;-20
2022/07/28 15:37:33;;;;;;;;;;;;;;;;;;4979667;28;20241;-21
2022/07/28 15:39:59;;;;;;;;;;;;;;;;;;4979615;28;20264;-20
2022/07/28 15:42:25;;;;;;;;;;;;;;;;;;4996778;28;19964;-19
2022/07/28 15:44:51;;;;;;;;;;;;;;;;;;4996838;28;19914;-20
2022/07/28 15:47:17;;;;;;;;;;;;;;;;;;4996791;28;19913;-20
2022/07/28 15:49:43;;;;;;;;;;;;;;;;;;4996905;28;19914;-19
2022/07/28 15:52:09;;;;;;;;;;;;;;;;;;4997132;28;19974;-20
2022/07/28 15:54:35;;;;;;;;;;;;;;;;;;4996965;28;19914;-21
2022/07/28 15:57:01;;;;;;;;;;;;;;;;;;4997184;28;19980;-20
2022/07/28 15:59:28;;;;;;;;;;;;;;;;;;4996711;28;20028;-20
2022/07/28 16:01:54;;;;;;;;;;;;;;;;;;4996254;28;19918;-19
2022/07/28 16:04:20;;;;;;;;;;;;;;;;;;4996310;28;20300;-20
2022/07/28 16:09:31;;;;;;;;;;;;;;;;;;4996722;28;20255;-20
2022/07/28 16:11:57;;;;;;;;;;;;;;;;;;4996290;28;20008;-20
2022/07/28 16:14:23;;;;;;;;;;;;;;;;;;4996451;28;19914;-19
2022/07/28 16:16:49;;;;;;;;;;;;;;;;;;4996296;28;19925;-20
2022/07/28 16:19:15;;;;;;;;;;;;;;;;;;4996280;28;19910;-20
2022/07/28 16:21:41;;;;;;;;;;;;;;;;;;4979204;28;19925;-20
2022/07/28 16:24:07;;;;;;;;;;;;;;;;;;4996248;28;19924;-20
2022/07/28 16:26:33;;;;;;;;;;;;;;;;;;4979107;28;20009;-20
2022/07/28 16:29:00;;;;;;;;;;;;;;;;;;4979070;28;20285;-20
2022/07/28 16:31:26;;;;;;;;;;;;;;;;;;4995961;28;20064;-20
2022/07/28 16:33:52;;;;;;;;;;;;;;;;;;4996239;28;20298;-21
2022/07/28 16:36:18;;;;;;;;;;;;;;;;;;4978709;28;19918;-20
2022/07/28 16:38:44;;;;;;;;;;;;;;;;;;4996080;28;19918;-21
2022/07/28 16:41:10;;;;;;;;;;;;;;;;;;4996125;28;19917;-18
2022/07/28 16:43:36;;;;;;;;;;;;;;;;;;4995959;28;19941;-20
2022/07/28 16:46:02;;;;;;;;;;;;;;;;;;4995871;28;20265;-20
2022/07/28 16:48:29;;;;;;;;;;;;;;;;;;4995874;28;19913;-20
2022/07/28 16:50:55;;;;;;;;;;;;;;;;;;4996287;28;19992;-21
2022/07/28 16:53:21;;;;;;;;;;;;;;;;;;4996023;28;19925;-19
2022/07/28 16:55:47;;;;;;;;;;;;;;;;;;4995736;28;19910;-19
2022/07/28 16:58:14;;;;;;;;;;;;;;;;;;4995483;28;20009;-20
2022/07/28 17:00:40;;;;;;;;;;;;;;;;;;4995611;28;19910;-20
2022/07/28 17:03:06;;;;;;;;;;;;;;;;;;4995779;28;20013;-20
2022/07/28 17:05:32;;;;;;;;;;;;;;;;;;4995606;28;19964;-21
2022/07/28 17:07:58;;;;;;;;;;;;;;;;;;4995344;28;19922;-20
2022/07/28 17:10:24;;;;;;;;;;;;;;;;;;4978362;28;20060;-20
2022/07/28 17:12:50;;;;;;;;;;;;;;;;;;4995575;28;19920;-21
2022/07/28 17:15:16;;;;;;;;;;;;;;;;;;4995815;28;19922;-19
2022/07/28 17:17:42;;;;;;;;;;;;;;;;;;4995843;28;20017;-19
2022/07/28 17:20:08;;;;;;;;;;;;;;;;;;4995593;28;20396;-19
2022/07/28 17:22:34;;;;;;;;;;;;;;;;;;4995416;28;19928;-21
2022/07/28 17:25:00;;;;;;;;;;;;;;;;;;4995294;28;19953;-20
2022/07/28 17:27:26;;;;;;;;;;;;;;;;;;4995240;28;20008;-20
2022/07/28 17:29:52;;;;;;;;;;;;;;;;;;4978189;28;19953;-20
2022/07/28 17:32:18;;;;;;;;;;;;;;;;;;4995389;28;19968;-20
2022/07/28 17:34:44;;;;;;;;;;;;;;;;;;4995180;28;19957;-20
2022/07/28 17:37:10;;;;;;;;;;;;;;;;;;4995311;28;19917;-20
2022/07/28 17:39:36;;;;;;;;;;;;;;;;;;4995440;28;20363;-20
2022/07/28 17:42:02;;;;;;;;;;;;;;;;;;4995005;28;19914;-20
2022/07/28 17:44:28;;;;;;;;;;;;;;;;;;4999062;28;19944;-20
2022/07/28 17:46:54;;;;;;;;;;;;;;;;;;4999084;28;20362;-21
2022/07/28 17:49:21;;;;;;;;;;;;;;;;;;4998922;28;19910;-20
2022/07/28 17:51:47;;;;;;;;;;;;;;;;;;4998935;28;19917;-20
2022/07/28 17:54:14;;;;;;;;;;;;;;;;;;4998912;28;19997;-21
2022/07/28 17:56:40;;;;;;;;;;;;;;;;;;4998894;28;19918;-19
2022/07/28 17:59:06;;;;;;;;;;;;;;;;;;4998923;28;19924;-20